sensor_id;sensor_type;location;lat;lon;timestamp;P1;durP1;ratioP1;P2;durP2;ratioP2
32365;SDS011;18837;46.832;16.838;2023-11-18T00:00:39;1.60;;;1.20;;
32365;SDS011;18837;46.832;16.838;2023-11-18T00:03:06;1.47;;;1.20;;
32365;SDS011;18837;46.832;16.838;2023-11-18T00:05:31;1.43;;;1.30;;
32365;SDS011;18837;46.832;16.838;2023-11-18T00:07:58;1.50;;;1.33;;
32365;SDS011;18837;46.832;16.838;2023-11-18T00:10:24;1.57;;;1.43;;
32365;SDS011;18837;46.832;16.838;2023-11-18T00:12:50;1.10;;;1.00;;
32365;SDS011;18837;46.832;16.838;2023-11-18T00:15:16;0.90;;;0.90;;
32365;SDS011;18837;46.832;16.838;2023-11-18T00:17:41;1.30;;;1.20;;
32365;SDS011;18837;46.832;16.838;2023-11-18T00:20:08;1.40;;;1.30;;
32365;SDS011;18837;46.832;16.838;2023-11-18T00:22:40;1.90;;;0.90;;
32365;SDS011;18837;46.832;16.838;2023-11-18T00:25:07;1.10;;;1.00;;
32365;SDS011;18837;46.832;16.838;2023-11-18T00:27:34;1.20;;;1.07;;
32365;SDS011;18837;46.832;16.838;2023-11-18T00:32:59;1.37;;;0.90;;
32365;SDS011;18837;46.832;16.838;2023-11-18T00:35:26;1.77;;;1.00;;
32365;SDS011;18837;46.832;16.838;2023-11-18T00:37:52;1.43;;;1.17;;
32365;SDS011;18837;46.832;16.838;2023-11-18T00:40:18;1.07;;;0.97;;
32365;SDS011;18837;46.832;16.838;2023-11-18T00:42:44;1.07;;;0.97;;
32365;SDS011;18837;46.832;16.838;2023-11-18T00:45:12;0.90;;;0.80;;
32365;SDS011;18837;46.832;16.838;2023-11-18T00:47:38;0.83;;;0.80;;
32365;SDS011;18837;46.832;16.838;2023-11-18T00:50:12;0.83;;;0.83;;
32365;SDS011;18837;46.832;16.838;2023-11-18T00:52:38;1.97;;;0.90;;
32365;SDS011;18837;46.832;16.838;2023-11-18T00:55:06;0.80;;;0.80;;
32365;SDS011;18837;46.832;16.838;2023-11-18T00:57:33;1.57;;;0.90;;
32365;SDS011;18837;46.832;16.838;2023-11-18T00:59:58;1.20;;;0.90;;
32365;SDS011;18837;46.832;16.838;2023-11-18T01:02:24;0.87;;;0.87;;
32365;SDS011;18837;46.832;16.838;2023-11-18T01:05:00;0.87;;;0.80;;
32365;SDS011;18837;46.832;16.838;2023-11-18T01:07:26;1.20;;;0.90;;
32365;SDS011;18837;46.832;16.838;2023-11-18T01:09:52;1.20;;;1.10;;
32365;SDS011;18837;46.832;16.838;2023-11-18T01:12:18;0.70;;;0.70;;
32365;SDS011;18837;46.832;16.838;2023-11-18T01:14:45;1.20;;;1.00;;
32365;SDS011;18837;46.832;16.838;2023-11-18T01:17:11;2.00;;;1.03;;
32365;SDS011;18837;46.832;16.838;2023-11-18T01:19:38;0.67;;;0.67;;
32365;SDS011;18837;46.832;16.838;2023-11-18T01:52:44;1.50;;;0.83;;
32365;SDS011;18837;46.832;16.838;2023-11-18T01:55:10;1.10;;;0.63;;
32365;SDS011;18837;46.832;16.838;2023-11-18T01:57:44;1.20;;;1.10;;
32365;SDS011;18837;46.832;16.838;2023-11-18T02:00:10;1.43;;;0.87;;
32365;SDS011;18837;46.832;16.838;2023-11-18T02:02:37;1.53;;;0.80;;
32365;SDS011;18837;46.832;16.838;2023-11-18T02:05:03;1.10;;;0.97;;
32365;SDS011;18837;46.832;16.838;2023-11-18T02:07:33;0.63;;;0.60;;
32365;SDS011;18837;46.832;16.838;2023-11-18T02:10:01;0.70;;;0.70;;
32365;SDS011;18837;46.832;16.838;2023-11-18T02:12:36;0.87;;;0.73;;
32365;SDS011;18837;46.832;16.838;2023-11-18T02:18:01;1.20;;;0.70;;
32365;SDS011;18837;46.832;16.838;2023-11-18T02:20:28;0.70;;;0.63;;
32365;SDS011;18837;46.832;16.838;2023-11-18T02:22:55;0.70;;;0.70;;
32365;SDS011;18837;46.832;16.838;2023-11-18T02:25:21;0.80;;;0.80;;
32365;SDS011;18837;46.832;16.838;2023-11-18T02:27:52;1.00;;;0.90;;
32365;SDS011;18837;46.832;16.838;2023-11-18T02:30:18;0.83;;;0.70;;
32365;SDS011;18837;46.832;16.838;2023-11-18T02:35:45;1.23;;;0.70;;
32365;SDS011;18837;46.832;16.838;2023-11-18T02:38:13;0.97;;;0.87;;
32365;SDS011;18837;46.832;16.838;2023-11-18T02:40:43;0.80;;;0.70;;
32365;SDS011;18837;46.832;16.838;2023-11-18T02:43:10;0.77;;;0.77;;
32365;SDS011;18837;46.832;16.838;2023-11-18T02:45:37;0.80;;;0.60;;
32365;SDS011;18837;46.832;16.838;2023-11-18T02:51:04;0.60;;;0.60;;
32365;SDS011;18837;46.832;16.838;2023-11-18T02:53:32;0.90;;;0.80;;
32365;SDS011;18837;46.832;16.838;2023-11-18T02:55:59;0.80;;;0.60;;
32365;SDS011;18837;46.832;16.838;2023-11-18T02:58:30;0.70;;;0.70;;
32365;SDS011;18837;46.832;16.838;2023-11-18T03:00:56;0.50;;;0.50;;
32365;SDS011;18837;46.832;16.838;2023-11-18T03:03:25;1.03;;;0.80;;
32365;SDS011;18837;46.832;16.838;2023-11-18T03:05:57;0.70;;;0.70;;
32365;SDS011;18837;46.832;16.838;2023-11-18T03:08:24;0.83;;;0.70;;
32365;SDS011;18837;46.832;16.838;2023-11-18T03:10:53;0.80;;;0.80;;
32365;SDS011;18837;46.832;16.838;2023-11-18T03:13:19;1.23;;;0.87;;
32365;SDS011;18837;46.832;16.838;2023-11-18T03:15:46;0.70;;;0.70;;
32365;SDS011;18837;46.832;16.838;2023-11-18T03:18:13;0.70;;;0.70;;
32365;SDS011;18837;46.832;16.838;2023-11-18T03:20:40;1.33;;;0.77;;
32365;SDS011;18837;46.832;16.838;2023-11-18T03:26:06;0.70;;;0.70;;
32365;SDS011;18837;46.832;16.838;2023-11-18T03:28:32;0.80;;;0.67;;
32365;SDS011;18837;46.832;16.838;2023-11-18T03:30:58;0.73;;;0.70;;
32365;SDS011;18837;46.832;16.838;2023-11-18T03:33:24;0.60;;;0.60;;
32365;SDS011;18837;46.832;16.838;2023-11-18T03:35:51;2.53;;;0.50;;
32365;SDS011;18837;46.832;16.838;2023-11-18T03:38:17;1.00;;;0.60;;
32365;SDS011;18837;46.832;16.838;2023-11-18T03:40:52;1.43;;;0.70;;
32365;SDS011;18837;46.832;16.838;2023-11-18T03:43:18;0.70;;;0.70;;
32365;SDS011;18837;46.832;16.838;2023-11-18T03:45:45;0.70;;;0.70;;
32365;SDS011;18837;46.832;16.838;2023-11-18T03:48:11;1.27;;;0.80;;
32365;SDS011;18837;46.832;16.838;2023-11-18T03:50:40;0.80;;;0.70;;
32365;SDS011;18837;46.832;16.838;2023-11-18T03:53:06;0.60;;;0.60;;
32365;SDS011;18837;46.832;16.838;2023-11-18T04:01:49;0.70;;;0.70;;
32365;SDS011;18837;46.832;16.838;2023-11-18T04:04:16;0.40;;;0.40;;
32365;SDS011;18837;46.832;16.838;2023-11-18T04:06:42;0.60;;;0.60;;
32365;SDS011;18837;46.832;16.838;2023-11-18T04:09:08;0.80;;;0.80;;
32365;SDS011;18837;46.832;16.838;2023-11-18T04:11:37;0.70;;;0.70;;
32365;SDS011;18837;46.832;16.838;2023-11-18T04:14:03;0.80;;;0.80;;
32365;SDS011;18837;46.832;16.838;2023-11-18T04:16:32;0.70;;;0.70;;
32365;SDS011;18837;46.832;16.838;2023-11-18T04:18:59;0.80;;;0.80;;
32365;SDS011;18837;46.832;16.838;2023-11-18T04:21:25;0.73;;;0.70;;
32365;SDS011;18837;46.832;16.838;2023-11-18T04:23:51;0.80;;;0.80;;
32365;SDS011;18837;46.832;16.838;2023-11-18T04:26:17;0.63;;;0.63;;
32365;SDS011;18837;46.832;16.838;2023-11-18T04:28:43;0.63;;;0.63;;
32365;SDS011;18837;46.832;16.838;2023-11-18T04:31:18;0.90;;;0.90;;
32365;SDS011;18837;46.832;16.838;2023-11-18T04:36:43;1.00;;;0.90;;
32365;SDS011;18837;46.832;16.838;2023-11-18T04:39:09;0.90;;;0.67;;
32365;SDS011;18837;46.832;16.838;2023-11-18T04:41:37;1.00;;;0.60;;
32365;SDS011;18837;46.832;16.838;2023-11-18T04:44:03;1.30;;;0.83;;
32365;SDS011;18837;46.832;16.838;2023-11-18T04:46:28;1.63;;;0.87;;
32365;SDS011;18837;46.832;16.838;2023-11-18T04:48:55;0.97;;;0.70;;
32365;SDS011;18837;46.832;16.838;2023-11-18T04:51:21;0.87;;;0.70;;
32365;SDS011;18837;46.832;16.838;2023-11-18T04:53:50;0.80;;;0.70;;
32365;SDS011;18837;46.832;16.838;2023-11-18T04:56:16;0.80;;;0.70;;
32365;SDS011;18837;46.832;16.838;2023-11-18T04:58:43;0.73;;;0.73;;
32365;SDS011;18837;46.832;16.838;2023-11-18T05:01:12;0.90;;;0.90;;
32365;SDS011;18837;46.832;16.838;2023-11-18T05:03:38;0.70;;;0.70;;
32365;SDS011;18837;46.832;16.838;2023-11-18T05:06:15;0.90;;;0.70;;
32365;SDS011;18837;46.832;16.838;2023-11-18T05:08:57;1.20;;;1.10;;
32365;SDS011;18837;46.832;16.838;2023-11-18T05:11:23;0.70;;;0.70;;
32365;SDS011;18837;46.832;16.838;2023-11-18T05:13:49;1.10;;;0.80;;
32365;SDS011;18837;46.832;16.838;2023-11-18T05:16:15;0.70;;;0.70;;
32365;SDS011;18837;46.832;16.838;2023-11-18T05:18:40;1.00;;;0.80;;
32365;SDS011;18837;46.832;16.838;2023-11-18T05:21:06;0.67;;;0.67;;
32365;SDS011;18837;46.832;16.838;2023-11-18T05:23:45;0.83;;;0.80;;
32365;SDS011;18837;46.832;16.838;2023-11-18T05:26:10;0.80;;;0.80;;
32365;SDS011;18837;46.832;16.838;2023-11-18T05:28:36;1.00;;;0.80;;
32365;SDS011;18837;46.832;16.838;2023-11-18T05:31:03;0.80;;;0.80;;
32365;SDS011;18837;46.832;16.838;2023-11-18T05:33:30;0.53;;;0.53;;
32365;SDS011;18837;46.832;16.838;2023-11-18T05:35:56;0.80;;;0.80;;
32365;SDS011;18837;46.832;16.838;2023-11-18T05:38:22;2.33;;;0.80;;
32365;SDS011;18837;46.832;16.838;2023-11-18T05:41:09;0.80;;;0.67;;
32365;SDS011;18837;46.832;16.838;2023-11-18T05:43:54;0.80;;;0.80;;
32365;SDS011;18837;46.832;16.838;2023-11-18T05:46:25;0.87;;;0.87;;
32365;SDS011;18837;46.832;16.838;2023-11-18T05:48:54;1.30;;;0.90;;
32365;SDS011;18837;46.832;16.838;2023-11-18T05:51:26;0.67;;;0.60;;
32365;SDS011;18837;46.832;16.838;2023-11-18T05:53:54;1.30;;;0.90;;
32365;SDS011;18837;46.832;16.838;2023-11-18T05:56:20;0.70;;;0.70;;
32365;SDS011;18837;46.832;16.838;2023-11-18T05:58:52;0.97;;;0.90;;
32365;SDS011;18837;46.832;16.838;2023-11-18T06:01:21;0.73;;;0.70;;
32365;SDS011;18837;46.832;16.838;2023-11-18T06:03:46;1.10;;;1.00;;
32365;SDS011;18837;46.832;16.838;2023-11-18T06:06:13;0.93;;;0.90;;
32365;SDS011;18837;46.832;16.838;2023-11-18T06:08:41;0.60;;;0.60;;
32365;SDS011;18837;46.832;16.838;2023-11-18T06:11:08;0.87;;;0.80;;
32365;SDS011;18837;46.832;16.838;2023-11-18T06:13:52;1.00;;;0.83;;
32365;SDS011;18837;46.832;16.838;2023-11-18T06:16:30;0.80;;;0.80;;
32365;SDS011;18837;46.832;16.838;2023-11-18T06:19:33;0.93;;;0.80;;
32365;SDS011;18837;46.832;16.838;2023-11-18T06:22:00;0.93;;;0.90;;
32365;SDS011;18837;46.832;16.838;2023-11-18T06:24:26;1.03;;;0.80;;
32365;SDS011;18837;46.832;16.838;2023-11-18T06:26:53;0.93;;;0.70;;
32365;SDS011;18837;46.832;16.838;2023-11-18T06:29:19;1.03;;;1.00;;
32365;SDS011;18837;46.832;16.838;2023-11-18T06:31:45;1.10;;;1.00;;
32365;SDS011;18837;46.832;16.838;2023-11-18T06:34:12;1.77;;;0.80;;
32365;SDS011;18837;46.832;16.838;2023-11-18T06:36:38;0.83;;;0.80;;
32365;SDS011;18837;46.832;16.838;2023-11-18T06:39:03;1.03;;;0.90;;
32365;SDS011;18837;46.832;16.838;2023-11-18T06:41:31;0.90;;;0.90;;
32365;SDS011;18837;46.832;16.838;2023-11-18T06:44:03;2.30;;;1.00;;
32365;SDS011;18837;46.832;16.838;2023-11-18T06:46:37;1.00;;;0.90;;
32365;SDS011;18837;46.832;16.838;2023-11-18T06:49:10;1.50;;;1.07;;
32365;SDS011;18837;46.832;16.838;2023-11-18T06:51:40;1.10;;;1.00;;
32365;SDS011;18837;46.832;16.838;2023-11-18T06:54:07;1.27;;;0.90;;
32365;SDS011;18837;46.832;16.838;2023-11-18T06:56:42;1.47;;;1.13;;
32365;SDS011;18837;46.832;16.838;2023-11-18T06:59:09;1.10;;;1.10;;
32365;SDS011;18837;46.832;16.838;2023-11-18T07:01:37;1.33;;;1.03;;
32365;SDS011;18837;46.832;16.838;2023-11-18T07:04:06;1.37;;;1.27;;
32365;SDS011;18837;46.832;16.838;2023-11-18T07:06:34;1.40;;;1.13;;
32365;SDS011;18837;46.832;16.838;2023-11-18T07:09:03;0.97;;;0.93;;
32365;SDS011;18837;46.832;16.838;2023-11-18T07:11:37;1.27;;;1.10;;
32365;SDS011;18837;46.832;16.838;2023-11-18T07:14:03;1.20;;;1.10;;
32365;SDS011;18837;46.832;16.838;2023-11-18T07:16:29;1.20;;;0.90;;
32365;SDS011;18837;46.832;16.838;2023-11-18T07:18:55;1.40;;;1.30;;
32365;SDS011;18837;46.832;16.838;2023-11-18T07:21:22;1.20;;;1.10;;
32365;SDS011;18837;46.832;16.838;2023-11-18T07:23:53;1.30;;;1.20;;
32365;SDS011;18837;46.832;16.838;2023-11-18T07:26:19;1.20;;;1.10;;
32365;SDS011;18837;46.832;16.838;2023-11-18T07:28:45;1.50;;;1.20;;
32365;SDS011;18837;46.832;16.838;2023-11-18T07:31:11;1.67;;;1.20;;
32365;SDS011;18837;46.832;16.838;2023-11-18T07:33:37;1.17;;;0.90;;
32365;SDS011;18837;46.832;16.838;2023-11-18T07:36:03;1.37;;;1.23;;
32365;SDS011;18837;46.832;16.838;2023-11-18T07:44:05;1.30;;;1.10;;
32365;SDS011;18837;46.832;16.838;2023-11-18T07:46:31;1.57;;;1.13;;
32365;SDS011;18837;46.832;16.838;2023-11-18T07:48:57;1.10;;;1.00;;
32365;SDS011;18837;46.832;16.838;2023-11-18T07:51:23;1.50;;;1.33;;
32365;SDS011;18837;46.832;16.838;2023-11-18T07:53:49;1.93;;;1.30;;
32365;SDS011;18837;46.832;16.838;2023-11-18T07:56:16;1.67;;;1.20;;
32365;SDS011;18837;46.832;16.838;2023-11-18T07:58:45;1.47;;;1.10;;
32365;SDS011;18837;46.832;16.838;2023-11-18T08:01:11;1.07;;;0.97;;
32365;SDS011;18837;46.832;16.838;2023-11-18T08:03:38;1.50;;;1.40;;
32365;SDS011;18837;46.832;16.838;2023-11-18T08:06:06;1.30;;;1.20;;
32365;SDS011;18837;46.832;16.838;2023-11-18T08:08:33;1.63;;;1.33;;
32365;SDS011;18837;46.832;16.838;2023-11-18T08:10:59;1.30;;;1.20;;
32365;SDS011;18837;46.832;16.838;2023-11-18T08:13:26;1.30;;;1.20;;
32365;SDS011;18837;46.832;16.838;2023-11-18T08:16:00;1.30;;;1.20;;
32365;SDS011;18837;46.832;16.838;2023-11-18T08:18:26;1.30;;;1.20;;
32365;SDS011;18837;46.832;16.838;2023-11-18T08:20:56;1.20;;;1.10;;
32365;SDS011;18837;46.832;16.838;2023-11-18T08:23:22;1.30;;;1.20;;
32365;SDS011;18837;46.832;16.838;2023-11-18T08:25:48;1.30;;;1.20;;
32365;SDS011;18837;46.832;16.838;2023-11-18T08:28:15;1.43;;;1.33;;
32365;SDS011;18837;46.832;16.838;2023-11-18T08:30:41;1.40;;;1.13;;
32365;SDS011;18837;46.832;16.838;2023-11-18T08:33:07;2.63;;;1.20;;
32365;SDS011;18837;46.832;16.838;2023-11-18T08:35:37;1.57;;;1.40;;
32365;SDS011;18837;46.832;16.838;2023-11-18T08:38:03;1.50;;;1.30;;
32365;SDS011;18837;46.832;16.838;2023-11-18T08:40:32;2.10;;;1.50;;
32365;SDS011;18837;46.832;16.838;2023-11-18T08:42:59;2.50;;;1.57;;
32365;SDS011;18837;46.832;16.838;2023-11-18T08:45:26;1.23;;;1.13;;
32365;SDS011;18837;46.832;16.838;2023-11-18T08:47:54;1.40;;;1.30;;
32365;SDS011;18837;46.832;16.838;2023-11-18T08:50:21;2.00;;;1.40;;
32365;SDS011;18837;46.832;16.838;2023-11-18T08:52:51;1.53;;;1.30;;
32365;SDS011;18837;46.832;16.838;2023-11-18T08:55:23;2.63;;;1.57;;
32365;SDS011;18837;46.832;16.838;2023-11-18T08:58:12;1.90;;;1.60;;
32365;SDS011;18837;46.832;16.838;2023-11-18T09:00:46;2.73;;;1.80;;
32365;SDS011;18837;46.832;16.838;2023-11-18T09:03:19;1.90;;;1.53;;
32365;SDS011;18837;46.832;16.838;2023-11-18T09:08:35;1.60;;;1.50;;
32365;SDS011;18837;46.832;16.838;2023-11-18T09:11:11;2.03;;;1.80;;
32365;SDS011;18837;46.832;16.838;2023-11-18T09:13:45;4.33;;;1.83;;
32365;SDS011;18837;46.832;16.838;2023-11-18T09:16:25;2.50;;;1.77;;
32365;SDS011;18837;46.832;16.838;2023-11-18T09:18:54;1.90;;;1.73;;
32365;SDS011;18837;46.832;16.838;2023-11-18T09:21:21;1.60;;;1.50;;
32365;SDS011;18837;46.832;16.838;2023-11-18T09:23:54;1.50;;;1.40;;
32365;SDS011;18837;46.832;16.838;2023-11-18T09:26:21;1.70;;;1.50;;
32365;SDS011;18837;46.832;16.838;2023-11-18T09:28:47;1.90;;;1.67;;
32365;SDS011;18837;46.832;16.838;2023-11-18T09:31:15;2.80;;;1.60;;
32365;SDS011;18837;46.832;16.838;2023-11-18T09:33:41;1.80;;;1.40;;
32365;SDS011;18837;46.832;16.838;2023-11-18T09:36:17;1.60;;;1.50;;
32365;SDS011;18837;46.832;16.838;2023-11-18T09:38:43;2.70;;;1.50;;
32365;SDS011;18837;46.832;16.838;2023-11-18T09:41:13;1.53;;;1.40;;
32365;SDS011;18837;46.832;16.838;2023-11-18T09:43:39;1.97;;;1.50;;
32365;SDS011;18837;46.832;16.838;2023-11-18T09:46:16;1.67;;;1.57;;
32365;SDS011;18837;46.832;16.838;2023-11-18T09:51:21;1.73;;;1.63;;
32365;SDS011;18837;46.832;16.838;2023-11-18T09:53:55;2.87;;;1.47;;
32365;SDS011;18837;46.832;16.838;2023-11-18T09:58:57;3.17;;;1.67;;
32365;SDS011;18837;46.832;16.838;2023-11-18T10:01:34;1.87;;;1.70;;
32365;SDS011;18837;46.832;16.838;2023-11-18T10:04:04;2.33;;;1.70;;
32365;SDS011;18837;46.832;16.838;2023-11-18T10:06:36;1.67;;;1.57;;
32365;SDS011;18837;46.832;16.838;2023-11-18T10:09:06;1.57;;;1.47;;
32365;SDS011;18837;46.832;16.838;2023-11-18T10:11:44;4.00;;;1.90;;
32365;SDS011;18837;46.832;16.838;2023-11-18T10:14:16;2.03;;;1.70;;
32365;SDS011;18837;46.832;16.838;2023-11-18T10:16:46;1.57;;;1.43;;
32365;SDS011;18837;46.832;16.838;2023-11-18T10:22:37;2.47;;;1.60;;
32365;SDS011;18837;46.832;16.838;2023-11-18T10:25:03;3.80;;;1.60;;
32365;SDS011;18837;46.832;16.838;2023-11-18T10:27:31;1.83;;;1.73;;
32365;SDS011;18837;46.832;16.838;2023-11-18T10:30:03;1.80;;;1.40;;
32365;SDS011;18837;46.832;16.838;2023-11-18T10:32:30;1.83;;;1.30;;
32365;SDS011;18837;46.832;16.838;2023-11-18T10:35:00;1.70;;;1.60;;
32365;SDS011;18837;46.832;16.838;2023-11-18T10:37:30;2.20;;;1.50;;
32365;SDS011;18837;46.832;16.838;2023-11-18T10:39:56;1.60;;;1.50;;
32365;SDS011;18837;46.832;16.838;2023-11-18T10:42:26;1.30;;;1.20;;
32365;SDS011;18837;46.832;16.838;2023-11-18T10:44:57;1.93;;;1.37;;
32365;SDS011;18837;46.832;16.838;2023-11-18T10:47:27;1.40;;;1.30;;
32365;SDS011;18837;46.832;16.838;2023-11-18T10:49:54;2.57;;;1.50;;
32365;SDS011;18837;46.832;16.838;2023-11-18T10:52:26;1.77;;;1.67;;
32365;SDS011;18837;46.832;16.838;2023-11-18T10:55:00;1.40;;;1.30;;
32365;SDS011;18837;46.832;16.838;2023-11-18T10:57:32;1.70;;;1.60;;
32365;SDS011;18837;46.832;16.838;2023-11-18T11:00:06;1.50;;;1.10;;
32365;SDS011;18837;46.832;16.838;2023-11-18T11:02:42;1.53;;;1.43;;
32365;SDS011;18837;46.832;16.838;2023-11-18T11:05:11;1.50;;;1.37;;
32365;SDS011;18837;46.832;16.838;2023-11-18T11:07:52;1.50;;;1.40;;
32365;SDS011;18837;46.832;16.838;2023-11-18T11:10:20;1.47;;;1.33;;
32365;SDS011;18837;46.832;16.838;2023-11-18T11:12:53;1.70;;;1.23;;
32365;SDS011;18837;46.832;16.838;2023-11-18T11:15:29;1.40;;;1.20;;
32365;SDS011;18837;46.832;16.838;2023-11-18T11:17:58;1.90;;;1.27;;
32365;SDS011;18837;46.832;16.838;2023-11-18T11:20:37;1.43;;;1.33;;
32365;SDS011;18837;46.832;16.838;2023-11-18T11:29:16;1.30;;;1.13;;
32365;SDS011;18837;46.832;16.838;2023-11-18T11:31:45;3.07;;;1.40;;
32365;SDS011;18837;46.832;16.838;2023-11-18T11:34:19;4.77;;;1.53;;
32365;SDS011;18837;46.832;16.838;2023-11-18T11:36:48;3.93;;;1.27;;
32365;SDS011;18837;46.832;16.838;2023-11-18T11:39:16;5.73;;;1.70;;
32365;SDS011;18837;46.832;16.838;2023-11-18T11:41:50;3.10;;;1.50;;
32365;SDS011;18837;46.832;16.838;2023-11-18T11:44:19;12.10;;;2.07;;
32365;SDS011;18837;46.832;16.838;2023-11-18T11:46:46;6.53;;;1.37;;
32365;SDS011;18837;46.832;16.838;2023-11-18T11:49:19;12.53;;;2.23;;
32365;SDS011;18837;46.832;16.838;2023-11-18T11:54:17;13.53;;;2.23;;
32365;SDS011;18837;46.832;16.838;2023-11-18T11:56:59;7.13;;;1.60;;
32365;SDS011;18837;46.832;16.838;2023-11-18T12:02:29;10.00;;;2.37;;
32365;SDS011;18837;46.832;16.838;2023-11-18T12:04:57;23.20;;;3.17;;
32365;SDS011;18837;46.832;16.838;2023-11-18T12:07:33;14.50;;;3.53;;
32365;SDS011;18837;46.832;16.838;2023-11-18T12:10:07;15.50;;;3.53;;
32365;SDS011;18837;46.832;16.838;2023-11-18T12:12:48;5.90;;;1.60;;
32365;SDS011;18837;46.832;16.838;2023-11-18T12:18:41;8.50;;;1.83;;
32365;SDS011;18837;46.832;16.838;2023-11-18T12:22:00;3.63;;;1.57;;
32365;SDS011;18837;46.832;16.838;2023-11-18T12:27:43;6.57;;;1.53;;
32365;SDS011;18837;46.832;16.838;2023-11-18T12:33:06;14.70;;;2.10;;
32365;SDS011;18837;46.832;16.838;2023-11-18T12:49:18;5.17;;;1.70;;
32365;SDS011;18837;46.832;16.838;2023-11-18T12:51:52;10.97;;;1.87;;
32365;SDS011;18837;46.832;16.838;2023-11-18T12:54:20;6.87;;;2.60;;
32365;SDS011;18837;46.832;16.838;2023-11-18T12:56:46;8.80;;;1.80;;
32365;SDS011;18837;46.832;16.838;2023-11-18T12:59:18;7.43;;;2.40;;
32365;SDS011;18837;46.832;16.838;2023-11-18T13:01:52;7.97;;;2.30;;
32365;SDS011;18837;46.832;16.838;2023-11-18T13:04:24;9.00;;;1.70;;
32365;SDS011;18837;46.832;16.838;2023-11-18T13:06:52;7.10;;;2.43;;
32365;SDS011;18837;46.832;16.838;2023-11-18T13:09:19;5.17;;;2.00;;
32365;SDS011;18837;46.832;16.838;2023-11-18T13:11:57;5.63;;;1.93;;
32365;SDS011;18837;46.832;16.838;2023-11-18T13:14:25;4.27;;;1.63;;
32365;SDS011;18837;46.832;16.838;2023-11-18T13:16:54;6.00;;;2.30;;
32365;SDS011;18837;46.832;16.838;2023-11-18T13:19:28;4.70;;;2.03;;
32365;SDS011;18837;46.832;16.838;2023-11-18T13:21:58;7.43;;;2.00;;
32365;SDS011;18837;46.832;16.838;2023-11-18T13:24:27;3.60;;;1.73;;
32365;SDS011;18837;46.832;16.838;2023-11-18T13:26:54;5.03;;;2.20;;
32365;SDS011;18837;46.832;16.838;2023-11-18T13:29:22;5.40;;;2.10;;
32365;SDS011;18837;46.832;16.838;2023-11-18T13:31:49;3.20;;;2.00;;
32365;SDS011;18837;46.832;16.838;2023-11-18T13:34:18;2.17;;;1.63;;
32365;SDS011;18837;46.832;16.838;2023-11-18T13:36:47;2.20;;;1.90;;
32365;SDS011;18837;46.832;16.838;2023-11-18T13:39:18;4.43;;;1.93;;
32365;SDS011;18837;46.832;16.838;2023-11-18T13:41:48;2.77;;;1.97;;
32365;SDS011;18837;46.832;16.838;2023-11-18T13:44:48;5.33;;;2.57;;
32365;SDS011;18837;46.832;16.838;2023-11-18T13:47:09;2.73;;;2.23;;
32365;SDS011;18837;46.832;16.838;2023-11-18T13:49:39;2.43;;;1.80;;
32365;SDS011;18837;46.832;16.838;2023-11-18T13:52:05;3.70;;;2.10;;
32365;SDS011;18837;46.832;16.838;2023-11-18T13:54:34;2.10;;;1.70;;
32365;SDS011;18837;46.832;16.838;2023-11-18T13:57:00;2.00;;;1.90;;
32365;SDS011;18837;46.832;16.838;2023-11-18T13:59:28;2.27;;;1.90;;
32365;SDS011;18837;46.832;16.838;2023-11-18T14:01:55;2.57;;;1.87;;
32365;SDS011;18837;46.832;16.838;2023-11-18T14:04:24;2.37;;;1.93;;
32365;SDS011;18837;46.832;16.838;2023-11-18T14:06:57;4.33;;;1.80;;
32365;SDS011;18837;46.832;16.838;2023-11-18T14:09:25;3.03;;;2.40;;
32365;SDS011;18837;46.832;16.838;2023-11-18T14:11:52;2.93;;;2.17;;
32365;SDS011;18837;46.832;16.838;2023-11-18T14:14:22;4.43;;;2.23;;
32365;SDS011;18837;46.832;16.838;2023-11-18T14:16:50;2.77;;;2.20;;
32365;SDS011;18837;46.832;16.838;2023-11-18T14:19:18;2.47;;;2.23;;
32365;SDS011;18837;46.832;16.838;2023-11-18T14:21:44;2.73;;;2.20;;
32365;SDS011;18837;46.832;16.838;2023-11-18T14:24:11;3.47;;;2.50;;
32365;SDS011;18837;46.832;16.838;2023-11-18T14:26:38;2.73;;;2.13;;
32365;SDS011;18837;46.832;16.838;2023-11-18T14:29:06;2.73;;;2.40;;
32365;SDS011;18837;46.832;16.838;2023-11-18T14:31:32;3.10;;;2.20;;
32365;SDS011;18837;46.832;16.838;2023-11-18T14:33:59;3.00;;;2.50;;
32365;SDS011;18837;46.832;16.838;2023-11-18T14:36:25;3.17;;;2.37;;
32365;SDS011;18837;46.832;16.838;2023-11-18T14:38:52;2.80;;;2.37;;
32365;SDS011;18837;46.832;16.838;2023-11-18T14:41:18;2.40;;;2.20;;
32365;SDS011;18837;46.832;16.838;2023-11-18T14:43:45;2.50;;;2.20;;
32365;SDS011;18837;46.832;16.838;2023-11-18T14:46:11;3.50;;;2.40;;
32365;SDS011;18837;46.832;16.838;2023-11-18T14:48:38;2.50;;;2.27;;
32365;SDS011;18837;46.832;16.838;2023-11-18T14:51:04;3.00;;;2.40;;
32365;SDS011;18837;46.832;16.838;2023-11-18T14:53:32;3.17;;;2.50;;
32365;SDS011;18837;46.832;16.838;2023-11-18T14:55:59;3.73;;;2.80;;
32365;SDS011;18837;46.832;16.838;2023-11-18T14:58:26;3.90;;;2.60;;
32365;SDS011;18837;46.832;16.838;2023-11-18T15:00:52;3.17;;;2.50;;
32365;SDS011;18837;46.832;16.838;2023-11-18T15:03:21;2.80;;;2.50;;
32365;SDS011;18837;46.832;16.838;2023-11-18T15:05:48;3.73;;;2.47;;
32365;SDS011;18837;46.832;16.838;2023-11-18T15:08:14;2.90;;;2.60;;
32365;SDS011;18837;46.832;16.838;2023-11-18T15:10:41;2.77;;;2.50;;
32365;SDS011;18837;46.832;16.838;2023-11-18T15:13:10;4.10;;;2.20;;
32365;SDS011;18837;46.832;16.838;2023-11-18T15:15:43;2.40;;;2.20;;
32365;SDS011;18837;46.832;16.838;2023-11-18T15:18:13;3.60;;;2.10;;
32365;SDS011;18837;46.832;16.838;2023-11-18T15:20:42;4.93;;;2.30;;
32365;SDS011;18837;46.832;16.838;2023-11-18T15:23:09;3.00;;;2.33;;
32365;SDS011;18837;46.832;16.838;2023-11-18T15:25:35;3.30;;;2.23;;
32365;SDS011;18837;46.832;16.838;2023-11-18T15:28:01;4.13;;;2.53;;
32365;SDS011;18837;46.832;16.838;2023-11-18T15:30:29;2.90;;;2.23;;
32365;SDS011;18837;46.832;16.838;2023-11-18T15:32:55;3.87;;;2.57;;
32365;SDS011;18837;46.832;16.838;2023-11-18T15:35:26;2.67;;;2.27;;
32365;SDS011;18837;46.832;16.838;2023-11-18T15:37:53;2.63;;;2.40;;
32365;SDS011;18837;46.832;16.838;2023-11-18T15:40:19;3.10;;;2.60;;
32365;SDS011;18837;46.832;16.838;2023-11-18T15:42:50;2.87;;;2.57;;
32365;SDS011;18837;46.832;16.838;2023-11-18T15:45:19;3.10;;;2.10;;
32365;SDS011;18837;46.832;16.838;2023-11-18T15:47:47;3.37;;;2.27;;
32365;SDS011;18837;46.832;16.838;2023-11-18T15:50:13;2.90;;;2.50;;
32365;SDS011;18837;46.832;16.838;2023-11-18T15:52:41;3.37;;;2.60;;
32365;SDS011;18837;46.832;16.838;2023-11-18T15:55:08;2.87;;;2.63;;
32365;SDS011;18837;46.832;16.838;2023-11-18T15:57:46;3.40;;;2.33;;
32365;SDS011;18837;46.832;16.838;2023-11-18T16:00:19;2.90;;;2.23;;
32365;SDS011;18837;46.832;16.838;2023-11-18T16:02:58;3.23;;;2.53;;
32365;SDS011;18837;46.832;16.838;2023-11-18T16:05:26;3.50;;;2.50;;
32365;SDS011;18837;46.832;16.838;2023-11-18T16:07:53;3.70;;;2.60;;
32365;SDS011;18837;46.832;16.838;2023-11-18T16:10:20;3.60;;;2.60;;
32365;SDS011;18837;46.832;16.838;2023-11-18T16:15:13;3.30;;;2.47;;
32365;SDS011;18837;46.832;16.838;2023-11-18T16:17:40;4.87;;;2.50;;
32365;SDS011;18837;46.832;16.838;2023-11-18T16:20:07;4.90;;;2.70;;
32365;SDS011;18837;46.832;16.838;2023-11-18T16:22:34;3.47;;;2.37;;
32365;SDS011;18837;46.832;16.838;2023-11-18T16:25:00;3.27;;;2.20;;
32365;SDS011;18837;46.832;16.838;2023-11-18T16:27:29;2.83;;;2.37;;
32365;SDS011;18837;46.832;16.838;2023-11-18T16:29:56;2.80;;;2.50;;
32365;SDS011;18837;46.832;16.838;2023-11-18T16:32:22;3.07;;;2.40;;